Terminal Aerodrome Forecast
Issued by NWS

Home | Current Version | Previous Version | Text Only | Print | Product List | Glossary On
Versions: 1 2 3 4 5 6 7 8 9 10 11 12 13 14 15 16 17 18 19 20 21 22
000
FTUS43 KMPX 011600 AAA
TAFRWF
TAF AMD
KRWF 011607Z 0116/0212 14013KT P6SM OVC008
     FM011800 15014KT P6SM BKN008 OVC012
     FM012000 21007KT P6SM VCSH SCT020 BKN030 BKN060
     FM012300 23005KT P6SM SCT020 BKN090
     FM020600 29006KT P6SM BKN200=

USA.gov is the U.S. government's official web portal to all federal, state and local government web resources and services.